createdAt,value
2018-05-07T00:00:49.437Z,99500.28
2018-05-07T00:03:22.948Z,99500.05
2018-05-07T00:05:56.741Z,99497.86
2018-05-07T00:08:30.164Z,99491.10
2018-05-07T00:11:03.952Z,99490.68
2018-05-07T00:13:37.453Z,99494.00
2018-05-07T00:16:10.965Z,99491.52
2018-05-07T00:18:44.772Z,99485.99
2018-05-07T00:21:18.536Z,99486.52
2018-05-07T00:23:52.228Z,99479.95
2018-05-07T00:26:25.901Z,99476.45
2018-05-07T00:28:59.647Z,99477.91
2018-05-07T00:31:33.252Z,99474.59
2018-05-07T00:34:06.823Z,99472.64
2018-05-07T00:36:40.336Z,99472.24
2018-05-07T00:39:13.894Z,99475.56
2018-05-07T00:41:47.478Z,99477.73
2018-05-07T00:44:20.936Z,99477.50
2018-05-07T00:46:54.428Z,99475.70
2018-05-07T00:49:28.040Z,99467.00
2018-05-07T00:52:01.648Z,99465.95
2018-05-07T00:54:47.364Z,99476.30
2018-05-07T00:57:21.125Z,99475.16
2018-05-07T00:59:54.672Z,99472.86
2018-05-07T01:02:28.194Z,99469.66
2018-05-07T01:05:01.772Z,99472.02
2018-05-07T01:07:35.295Z,99473.38
2018-05-07T01:10:08.997Z,99474.44
2018-05-07T01:12:42.482Z,99475.37
2018-05-07T01:15:16.147Z,99475.14
2018-05-07T01:17:49.684Z,99475.36
2018-05-07T01:20:23.284Z,99476.36
2018-05-07T01:22:57.032Z,99475.48
2018-05-07T01:25:30.584Z,99476.51
2018-05-07T01:28:04.227Z,99474.02
2018-05-07T01:30:37.828Z,99471.11
2018-05-07T01:33:11.568Z,99473.70
2018-05-07T01:35:45.148Z,99485.47
2018-05-07T01:38:18.903Z,99488.88
2018-05-07T01:40:52.524Z,99484.13
2018-05-07T01:43:26.136Z,99484.13
2018-05-07T01:45:59.952Z,99481.64
2018-05-07T01:48:33.558Z,99483.41
2018-05-07T01:51:07.284Z,99480.23
2018-05-07T01:53:40.839Z,99477.89
2018-05-07T01:56:14.615Z,99477.39
2018-05-07T01:58:48.224Z,99474.66
2018-05-07T02:01:22.010Z,99473.52
2018-05-07T02:03:55.576Z,99468.95
2018-05-07T02:06:29.255Z,99464.06
2018-05-07T02:09:02.992Z,99468.95
2018-05-07T02:11:36.696Z,99460.34
2018-05-07T02:14:10.303Z,99466.69
2018-05-07T02:16:43.820Z,99463.14
2018-05-07T02:19:17.338Z,99463.00
2018-05-07T02:21:50.900Z,99462.04
2018-05-07T02:24:24.478Z,99459.31
2018-05-07T02:26:58.792Z,99458.59
2018-05-07T02:29:32.300Z,99455.62
2018-05-07T02:32:05.949Z,99463.66
2018-05-07T02:34:39.473Z,99462.86
2018-05-07T02:37:13.167Z,99464.87
2018-05-07T02:39:46.720Z,99461.65
2018-05-07T02:42:20.292Z,99460.92
2018-05-07T02:44:54.040Z,99455.94
2018-05-07T02:47:27.676Z,99458.17
2018-05-07T02:50:01.285Z,99457.14
2018-05-07T02:52:35.142Z,99458.42
2018-05-07T02:55:09.210Z,99457.55
2018-05-07T02:57:42.783Z,99454.89
2018-05-07T03:00:16.300Z,99457.46
2018-05-07T03:02:49.899Z,99457.16
2018-05-07T03:05:23.498Z,99456.09
2018-05-07T03:07:57.636Z,99456.18
2018-05-07T03:10:31.533Z,99456.27
2018-05-07T03:13:05.214Z,99455.62
2018-05-07T03:15:38.802Z,99447.83
2018-05-07T03:18:12.347Z,99449.52
2018-05-07T03:20:45.869Z,99441.54
2018-05-07T03:23:19.647Z,99438.80
2018-05-07T03:25:53.287Z,99440.36
2018-05-07T03:28:27.520Z,99438.27
2018-05-07T03:31:01.197Z,99435.38
2018-05-07T03:33:34.707Z,99440.44
2018-05-07T03:36:08.355Z,99433.35
2018-05-07T03:38:42.052Z,99438.66
2018-05-07T03:41:15.811Z,99434.56
2018-05-07T03:43:49.326Z,99436.14
2018-05-07T03:46:22.923Z,99432.87
2018-05-07T03:48:56.599Z,99436.89
2018-05-07T03:51:30.296Z,99437.77
2018-05-07T03:54:04.153Z,99428.29
2018-05-07T03:56:37.864Z,99423.92
2018-05-07T03:59:11.644Z,99421.99
2018-05-07T04:01:45.516Z,99413.61
2018-05-07T04:04:20.027Z,99416.93
2018-05-07T04:06:53.701Z,99412.38
2018-05-07T04:09:27.327Z,99418.64
2018-05-07T04:12:01.256Z,99419.20
2018-05-07T04:14:35.004Z,99417.20
2018-05-07T04:17:26.460Z,99412.53
2018-05-07T04:20:12.220Z,99412.69
2018-05-07T04:22:57.879Z,99413.02
2018-05-07T04:25:31.541Z,99416.72
2018-05-07T04:28:05.228Z,99412.86
2018-05-07T04:30:38.916Z,99412.86
2018-05-07T04:33:12.589Z,99410.20
2018-05-07T04:35:46.194Z,99412.53
2018-05-07T04:38:19.791Z,99413.50
2018-05-07T04:40:53.517Z,99408.11
2018-05-07T04:43:27.204Z,99409.23
2018-05-07T04:46:00.883Z,99409.95
2018-05-07T04:48:34.401Z,99412.20
2018-05-07T04:51:07.998Z,99411.33
2018-05-07T04:53:41.721Z,99411.17
2018-05-07T04:56:15.567Z,99420.98
2018-05-07T04:58:49.301Z,99419.77
2018-05-07T05:01:22.925Z,99423.61
2018-05-07T05:03:56.676Z,99421.83
2018-05-07T05:06:30.357Z,99422.30
2018-05-07T05:09:03.950Z,99419.09
2018-05-07T05:11:37.705Z,99416.49
2018-05-07T05:14:11.494Z,99421.64
2018-05-07T05:16:45.282Z,99420.64
2018-05-07T05:19:18.919Z,99418.86
2018-05-07T05:21:52.569Z,99423.83
2018-05-07T05:24:26.280Z,99425.55
2018-05-07T05:26:59.985Z,99423.42
2018-05-07T05:29:33.824Z,99423.68
2018-05-07T05:32:07.641Z,99421.58
2018-05-07T05:34:41.826Z,99425.33
2018-05-07T05:37:15.761Z,99427.78
2018-05-07T05:39:49.325Z,99420.84
2018-05-07T05:42:23.158Z,99417.47
2018-05-07T05:44:56.845Z,99417.13
2018-05-07T05:47:30.395Z,99424.14
2018-05-07T05:50:04.224Z,99417.60
2018-05-07T05:52:37.700Z,99419.09
2018-05-07T05:55:11.445Z,99413.63
2018-05-07T05:57:45.141Z,99413.66
2018-05-07T06:00:18.812Z,99417.62
2018-05-07T06:02:52.382Z,99415.47
2018-05-07T06:05:26.218Z,99409.68
2018-05-07T06:07:59.850Z,99409.84
2018-05-07T06:10:33.480Z,99410.43
2018-05-07T06:13:07.336Z,99414.15
2018-05-07T06:15:41.128Z,99413.83
2018-05-07T06:18:14.695Z,99410.41
2018-05-07T06:20:48.520Z,99409.05
2018-05-07T06:23:22.268Z,99405.28
2018-05-07T06:25:56.054Z,99406.39
2018-05-07T06:28:29.758Z,99407.77
2018-05-07T06:31:03.318Z,99407.77
2018-05-07T06:33:37.007Z,99411.54
2018-05-07T06:36:10.758Z,99406.73
2018-05-07T06:38:44.611Z,99398.13
2018-05-07T06:41:18.307Z,99404.95
2018-05-07T06:43:52.413Z,99407.55
2018-05-07T06:46:26.152Z,99412.89
2018-05-07T06:48:59.884Z,99411.65
2018-05-07T06:51:33.566Z,99412.34
2018-05-07T06:54:07.097Z,99418.47
2018-05-07T06:56:40.731Z,99411.73
2018-05-07T06:59:14.595Z,99412.67
2018-05-07T07:01:48.227Z,99400.94
2018-05-07T07:04:21.839Z,99408.00
2018-05-07T07:06:55.528Z,99399.49
2018-05-07T07:09:29.242Z,99406.73
2018-05-07T07:12:02.812Z,99409.38
2018-05-07T07:14:36.633Z,99405.23
2018-05-07T07:17:10.390Z,99410.92
2018-05-07T07:19:43.999Z,99397.48
2018-05-07T07:22:17.574Z,99395.13
2018-05-07T07:24:51.342Z,99393.91
2018-05-07T07:27:24.861Z,99395.59
2018-05-07T07:29:58.506Z,99396.02
2018-05-07T07:32:32.011Z,99395.95
2018-05-07T07:35:05.736Z,99399.22
2018-05-07T07:37:39.302Z,99404.41
2018-05-07T07:40:12.842Z,99402.08
2018-05-07T07:42:46.625Z,99400.34
2018-05-07T07:45:20.398Z,99397.00
2018-05-07T07:47:53.941Z,99402.19
2018-05-07T07:50:27.609Z,99403.80
2018-05-07T07:53:01.185Z,99399.94
2018-05-07T07:55:34.981Z,99403.61
2018-05-07T07:58:08.468Z,99401.33
2018-05-07T08:00:42.131Z,99403.14
2018-05-07T08:03:15.716Z,99406.26
2018-05-07T08:05:49.341Z,99394.94
2018-05-07T08:08:23.264Z,99405.18
2018-05-07T08:10:57.077Z,99405.08
2018-05-07T08:13:30.744Z,99400.45
2018-05-07T08:16:04.405Z,99397.59
2018-05-07T08:18:38.049Z,99396.39
2018-05-07T08:21:11.863Z,99395.47
2018-05-07T08:23:45.572Z,99391.91
2018-05-07T08:26:19.338Z,99393.91
2018-05-07T08:28:53.144Z,99390.29
2018-05-07T08:31:26.702Z,99395.77
2018-05-07T08:34:00.461Z,99395.12
2018-05-07T08:36:34.222Z,99393.86
2018-05-07T08:39:07.833Z,99386.88
2018-05-07T08:41:41.634Z,99382.55
2018-05-07T08:44:15.292Z,99383.25
2018-05-07T08:46:48.864Z,99386.45
2018-05-07T08:49:22.457Z,99388.11
2018-05-07T08:51:56.186Z,99386.18
2018-05-07T08:54:29.997Z,99383.41
2018-05-07T08:57:03.684Z,99383.45
2018-05-07T08:59:37.422Z,99380.19
2018-05-07T09:02:11.159Z,99385.98
2018-05-07T09:04:44.899Z,99380.14
2018-05-07T09:07:18.462Z,99372.28
2018-05-07T09:09:52.254Z,99368.61
2018-05-07T09:12:25.859Z,99360.34
2018-05-07T09:14:59.524Z,99364.17
2018-05-07T09:17:33.308Z,99368.44
2018-05-07T09:20:06.970Z,99359.39
2018-05-07T09:22:40.570Z,99359.48
2018-05-07T09:25:14.309Z,99362.80
2018-05-07T09:27:47.973Z,99359.58
2018-05-07T09:30:21.588Z,99355.34
2018-05-07T09:32:55.313Z,99349.98
2018-05-07T09:35:29.135Z,99349.38
2018-05-07T09:38:02.782Z,99351.22
2018-05-07T09:40:36.382Z,99351.45
2018-05-07T09:43:09.950Z,99347.45
2018-05-07T09:45:43.731Z,99342.58
2018-05-07T09:48:17.361Z,99335.04
2018-05-07T09:50:51.028Z,99348.25
2018-05-07T09:53:24.629Z,99338.87
2018-05-07T09:55:58.202Z,99335.96
2018-05-07T09:58:31.873Z,99337.66
2018-05-07T10:01:05.600Z,99332.11
2018-05-07T10:03:39.316Z,99331.42
2018-05-07T10:06:13.033Z,99327.34
2018-05-07T10:08:46.733Z,99329.16
2018-05-07T10:11:20.338Z,99322.81
2018-05-07T10:13:54.150Z,99326.19
2018-05-07T10:16:27.877Z,99316.86
2018-05-07T10:19:01.648Z,99315.23
2018-05-07T10:21:35.209Z,99312.93
2018-05-07T10:24:08.943Z,99309.86
2018-05-07T10:26:42.722Z,99305.59
2018-05-07T10:29:16.430Z,99307.95
2018-05-07T10:31:50.020Z,99299.13
2018-05-07T10:34:23.693Z,99308.58
2018-05-07T10:36:57.226Z,99312.86
2018-05-07T10:39:31.028Z,99303.78
2018-05-07T10:42:04.693Z,99304.27
2018-05-07T10:44:38.684Z,99298.52
2018-05-07T10:47:12.198Z,99292.23
2018-05-07T10:49:45.943Z,99292.04
2018-05-07T10:52:19.589Z,99292.51
2018-05-07T10:54:53.336Z,99288.48
2018-05-07T10:57:27.014Z,99288.39
2018-05-07T11:00:00.737Z,99279.45
2018-05-07T11:02:34.377Z,99272.62
2018-05-07T11:05:08.106Z,99263.80
2018-05-07T11:07:41.827Z,99261.56
2018-05-07T11:10:15.353Z,99261.37
2018-05-07T11:12:49.332Z,99265.33
2018-05-07T11:15:23.029Z,99262.00
2018-05-07T11:17:57.042Z,99259.20
2018-05-07T11:20:30.620Z,99254.45
2018-05-07T11:23:04.385Z,99250.30
2018-05-07T11:25:38.281Z,99258.32
2018-05-07T11:28:11.985Z,99258.41
2018-05-07T11:30:45.694Z,99250.36
2018-05-07T11:33:19.561Z,99254.80
2018-05-07T11:35:53.685Z,99253.32
2018-05-07T11:38:27.398Z,99244.88
2018-05-07T11:41:01.008Z,99240.88
2018-05-07T11:43:34.685Z,99236.31
2018-05-07T11:46:08.249Z,99236.27
2018-05-07T11:48:41.918Z,99236.09
2018-05-07T11:51:15.418Z,99242.71
2018-05-07T11:53:49.141Z,99235.06
2018-05-07T11:56:22.717Z,99233.56
2018-05-07T11:58:56.276Z,99239.96
2018-05-07T12:01:30.990Z,99229.95
2018-05-07T12:04:04.717Z,99232.89
2018-05-07T12:06:38.360Z,99218.73
2018-05-07T12:09:11.990Z,99225.40
2018-05-07T12:11:45.645Z,99225.48
2018-05-07T12:14:19.247Z,99225.52
2018-05-07T12:16:53.086Z,99220.27
2018-05-07T12:19:26.826Z,99212.39
2018-05-07T12:22:00.520Z,99208.37
2018-05-07T12:24:34.219Z,99201.16
2018-05-07T12:27:08.190Z,99200.95
2018-05-07T12:29:41.760Z,99196.25
2018-05-07T12:32:15.500Z,99201.16
2018-05-07T12:34:49.238Z,99197.21
2018-05-07T12:37:22.849Z,99199.97
2018-05-07T12:39:56.569Z,99198.03
2018-05-07T12:42:30.340Z,99194.98
2018-05-07T12:45:04.084Z,99188.18
2018-05-07T12:47:37.696Z,99183.09
2018-05-07T12:50:11.449Z,99180.41
2018-05-07T12:52:45.153Z,99169.55
2018-05-07T12:55:18.824Z,99164.39
2018-05-07T12:57:53.369Z,99168.88
2018-05-07T13:00:27.166Z,99168.11
2018-05-07T13:03:00.876Z,99161.52
2018-05-07T13:05:34.618Z,99158.17
2018-05-07T13:08:08.352Z,99158.61
2018-05-07T13:10:42.101Z,99152.64
2018-05-07T13:13:15.694Z,99152.95
2018-05-07T13:15:49.473Z,99146.93
2018-05-07T13:18:23.295Z,99147.86
2018-05-07T13:20:57.055Z,99142.61
2018-05-07T13:23:30.687Z,99144.64
2018-05-07T13:26:04.369Z,99138.86
2018-05-07T13:28:37.986Z,99132.84
2018-05-07T13:31:11.740Z,99123.23
2018-05-07T13:33:45.409Z,99126.04
2018-05-07T13:36:19.061Z,99117.94
2018-05-07T13:38:52.673Z,99116.80
2018-05-07T13:41:26.349Z,99118.00
2018-05-07T13:44:00.139Z,99112.81
2018-05-07T13:46:33.721Z,99105.42
2018-05-07T13:49:07.484Z,99112.53
2018-05-07T13:51:41.073Z,99105.90
2018-05-07T13:54:15.053Z,99101.13
2018-05-07T13:56:48.684Z,99093.66
2018-05-07T13:59:22.379Z,99090.77
2018-05-07T14:01:56.078Z,99088.63
2018-05-07T14:04:29.748Z,99081.91
2018-05-07T14:07:03.711Z,99083.02
2018-05-07T14:09:37.421Z,99075.77
2018-05-07T14:12:10.962Z,99072.91
2018-05-07T14:14:44.684Z,99070.34
2018-05-07T14:17:18.406Z,99065.73
2018-05-07T14:19:52.083Z,99064.48
2018-05-07T14:22:25.843Z,99052.06
2018-05-07T14:24:59.496Z,99047.89
2018-05-07T14:27:33.227Z,99051.75
2018-05-07T14:30:07.220Z,99054.75
2018-05-07T14:32:40.904Z,99055.30
2018-05-07T14:35:14.464Z,99049.52
2018-05-07T14:37:48.007Z,99049.52
2018-05-07T14:40:21.817Z,99050.73
2018-05-07T14:42:55.492Z,99046.16
2018-05-07T14:45:29.211Z,99043.04
2018-05-07T14:48:03.100Z,99032.22
2018-05-07T14:50:36.801Z,99035.70
2018-05-07T14:53:10.429Z,99035.66
2018-05-07T14:55:44.172Z,99025.41
2018-05-07T14:58:17.819Z,99027.66
2018-05-07T15:00:51.635Z,99028.55
2018-05-07T15:03:25.149Z,99023.42
2018-05-07T15:05:58.905Z,99021.73
2018-05-07T15:08:32.581Z,99017.41
2018-05-07T15:11:06.392Z,99016.58
2018-05-07T15:13:39.957Z,99016.20
2018-05-07T15:16:13.745Z,99015.01
2018-05-07T15:18:47.465Z,99019.23
2018-05-07T15:21:21.251Z,99005.59
2018-05-07T15:23:54.837Z,99014.12
2018-05-07T15:26:28.504Z,99012.26
2018-05-07T15:29:02.141Z,99007.30
2018-05-07T15:31:35.724Z,99004.72
2018-05-07T15:34:09.678Z,99008.31
2018-05-07T15:36:43.176Z,98995.33
2018-05-07T15:39:17.137Z,98995.50
2018-05-07T15:41:50.690Z,98989.77
2018-05-07T15:44:24.483Z,98989.15
2018-05-07T15:46:58.204Z,98994.77
2018-05-07T15:49:31.817Z,98991.34
2018-05-07T15:52:05.587Z,98982.92
2018-05-07T15:54:39.270Z,98992.56
2018-05-07T15:57:13.394Z,98987.16
2018-05-07T15:59:49.702Z,98982.51
2018-05-07T16:02:23.376Z,98975.90
2018-05-07T16:07:37.068Z,98981.04
2018-05-07T16:10:10.649Z,98977.67
2018-05-07T16:12:44.357Z,98978.25
2018-05-07T16:15:17.887Z,98970.03
2018-05-07T16:17:51.453Z,98975.99
2018-05-07T16:20:25.144Z,98981.06
2018-05-07T16:22:58.704Z,98973.28
2018-05-07T16:25:32.282Z,98967.38
2018-05-07T16:28:06.054Z,98957.59
2018-05-07T16:30:39.571Z,98960.00
2018-05-07T16:33:13.309Z,98962.38
2018-05-07T16:35:47.387Z,98960.64
2018-05-07T16:38:20.991Z,98962.46
2018-05-07T16:40:54.569Z,98954.55
2018-05-07T16:43:28.300Z,98953.23
2018-05-07T16:46:01.963Z,98946.57
2018-05-07T16:48:35.717Z,98944.56
2018-05-07T16:51:09.333Z,98948.00
2018-05-07T16:53:42.911Z,98943.67
2018-05-07T16:56:16.525Z,98945.89
2018-05-07T16:58:50.272Z,98952.02
2018-05-07T17:01:24.003Z,98936.77
2018-05-07T17:03:57.792Z,98940.16
2018-05-07T17:06:31.456Z,98938.83
2018-05-07T17:09:05.200Z,98942.78
2018-05-07T17:11:38.913Z,98941.64
2018-05-07T17:14:12.653Z,98939.47
2018-05-07T17:16:46.360Z,98935.71
2018-05-07T17:19:20.038Z,98932.75
2018-05-07T17:21:53.791Z,98931.17
2018-05-07T17:24:27.524Z,98925.63
2018-05-07T17:27:01.210Z,98921.67
2018-05-07T17:29:34.933Z,98921.08
2018-05-07T17:32:08.588Z,98927.45
2018-05-07T17:34:42.212Z,98925.45
2018-05-07T17:37:16.035Z,98924.08
2018-05-07T17:39:49.648Z,98926.25
2018-05-07T17:42:23.274Z,98922.48
2018-05-07T17:45:08.760Z,98920.28
2018-05-07T17:47:54.289Z,98918.72
2018-05-07T17:50:28.011Z,98928.25
2018-05-07T17:53:01.555Z,98923.50
2018-05-07T17:55:35.297Z,98923.70
2018-05-07T17:58:09.063Z,98922.89
2018-05-07T18:00:42.650Z,98926.47
2018-05-07T18:03:16.272Z,98926.23
2018-05-07T18:05:49.836Z,98927.19
2018-05-07T18:08:23.734Z,98919.27
2018-05-07T18:10:57.413Z,98919.02
2018-05-07T18:13:31.448Z,98928.70
2018-05-07T18:16:04.963Z,98934.00
2018-05-07T18:18:38.792Z,98930.38
2018-05-07T18:21:12.272Z,98929.63
2018-05-07T18:23:45.871Z,98928.41
2018-05-07T18:26:19.528Z,98927.94
2018-05-07T18:28:53.272Z,98927.30
2018-05-07T18:31:27.014Z,98922.95
2018-05-07T18:34:00.770Z,98923.12
2018-05-07T18:36:34.530Z,98920.47
2018-05-07T18:39:08.140Z,98931.17
2018-05-07T18:41:41.638Z,98925.86
2018-05-07T18:44:15.171Z,98929.62
2018-05-07T18:46:48.867Z,98926.98
2018-05-07T18:49:22.390Z,98937.89
2018-05-07T18:51:55.971Z,98934.05
2018-05-07T18:54:29.707Z,98933.11
2018-05-07T18:57:03.235Z,98934.59
2018-05-07T18:59:36.793Z,98933.12
2018-05-07T19:02:10.464Z,98930.38
2018-05-07T19:04:44.000Z,98931.08
2018-05-07T19:07:17.532Z,98927.13
2018-05-07T19:09:51.312Z,98930.44
2018-05-07T19:12:25.215Z,98939.15
2018-05-07T19:14:58.863Z,98941.08
2018-05-07T19:17:32.422Z,98941.30
2018-05-07T19:20:06.141Z,98943.76
2018-05-07T19:22:39.701Z,98944.33
2018-05-07T19:25:13.478Z,98944.30
2018-05-07T19:27:47.095Z,98949.42
2018-05-07T19:30:20.603Z,98956.95
2018-05-07T19:32:54.137Z,98956.12
2018-05-07T19:35:28.040Z,98958.56
2018-05-07T19:38:01.527Z,98954.06
2018-05-07T19:40:35.299Z,98958.42
2018-05-07T19:43:08.986Z,98953.49
2018-05-07T19:45:42.510Z,98956.30
2018-05-07T19:48:16.040Z,98960.65
2018-05-07T19:50:49.783Z,98958.44
2018-05-07T19:53:23.362Z,98968.73
2018-05-07T19:55:56.944Z,98966.48
2018-05-07T19:58:30.711Z,98961.56
2018-05-07T20:01:04.292Z,98965.65
2018-05-07T20:03:37.812Z,98969.64
2018-05-07T20:06:11.560Z,98967.11
2018-05-07T20:08:45.056Z,98968.34
2018-05-07T20:11:18.660Z,98966.48
2018-05-07T20:13:52.419Z,98969.77
2018-05-07T20:16:26.188Z,98968.25
2018-05-07T20:18:59.882Z,98966.98
2018-05-07T20:21:33.420Z,98970.95
2018-05-07T20:24:07.107Z,98965.89
2018-05-07T20:26:40.523Z,98965.98
2018-05-07T20:29:14.045Z,98967.56
2018-05-07T20:31:47.911Z,98973.41
2018-05-07T20:34:21.528Z,98973.55
2018-05-07T20:36:55.853Z,98970.79
2018-05-07T20:39:29.597Z,98970.45
2018-05-07T20:42:03.242Z,98968.34
2018-05-07T20:44:36.900Z,98967.22
2018-05-07T20:47:10.769Z,98966.23
2018-05-07T20:49:44.357Z,98967.03
2018-05-07T20:52:18.359Z,98967.77
2018-05-07T20:54:51.915Z,98968.47
2018-05-07T20:57:25.677Z,98962.72
2018-05-07T20:59:59.301Z,98980.19
2018-05-07T21:02:32.956Z,98973.02
2018-05-07T21:05:06.649Z,98976.50
2018-05-07T21:07:40.227Z,98977.73
2018-05-07T21:10:13.718Z,98971.06
2018-05-07T21:12:47.380Z,98969.95
2018-05-07T21:15:21.021Z,98969.98
2018-05-07T21:17:54.600Z,98973.56
2018-05-07T21:20:28.404Z,98971.28
2018-05-07T21:23:02.092Z,98966.14
2018-05-07T21:25:35.846Z,98971.69
2018-05-07T21:28:09.448Z,98965.86
2018-05-07T21:30:42.967Z,98968.47
2018-05-07T21:33:16.550Z,98970.99
2018-05-07T21:35:50.234Z,98966.69
2018-05-07T21:38:23.740Z,98968.42
2018-05-07T21:40:57.455Z,98969.84
2018-05-07T21:43:31.140Z,98971.32
2018-05-07T21:46:04.780Z,98973.13
2018-05-07T21:48:38.500Z,98965.81
2018-05-07T21:51:12.026Z,98973.02
2018-05-07T21:53:45.531Z,98969.09
2018-05-07T21:56:19.098Z,98964.25
2018-05-07T21:58:52.651Z,98964.55
2018-05-07T22:01:26.200Z,98964.06
2018-05-07T22:03:59.711Z,98966.68
2018-05-07T22:06:33.471Z,98968.09
2018-05-07T22:09:07.437Z,98962.20
2018-05-07T22:11:41.137Z,98957.69
2018-05-07T22:14:14.814Z,98963.95
2018-05-07T22:16:48.456Z,98962.72
2018-05-07T22:19:22.043Z,98963.41
2018-05-07T22:21:55.961Z,98958.89
2018-05-07T22:24:29.878Z,98966.34
2018-05-07T22:27:03.483Z,98960.11
2018-05-07T22:29:37.082Z,98969.31
2018-05-07T22:32:10.671Z,98962.44
2018-05-07T22:34:44.332Z,98964.77
2018-05-07T22:37:18.152Z,98954.23
2018-05-07T22:39:51.776Z,98954.73
2018-05-07T22:42:25.353Z,98958.30
2018-05-07T22:44:58.988Z,98960.34
2018-05-07T22:47:32.555Z,98956.63
2018-05-07T22:50:06.152Z,98957.26
2018-05-07T22:52:39.707Z,98954.19
2018-05-07T22:55:20.580Z,98953.31
2018-05-07T22:57:54.144Z,98949.56
2018-05-07T23:00:27.656Z,98949.02
2018-05-07T23:03:01.512Z,98948.45
2018-05-07T23:05:35.094Z,98950.04
2018-05-07T23:08:08.650Z,98945.11
2018-05-07T23:10:42.691Z,98941.81
2018-05-07T23:13:16.338Z,98944.30
2018-05-07T23:15:49.943Z,98941.18
2018-05-07T23:18:23.540Z,98936.31
2018-05-07T23:20:57.260Z,98934.98
2018-05-07T23:23:31.107Z,98934.59
2018-05-07T23:26:04.704Z,98925.97
2018-05-07T23:28:38.371Z,98933.11
2018-05-07T23:31:11.859Z,98934.20
2018-05-07T23:33:45.442Z,98926.27
2018-05-07T23:36:19.028Z,98930.80
2018-05-07T23:38:53.031Z,98927.31
2018-05-07T23:41:26.522Z,98925.52
2018-05-07T23:44:00.316Z,98918.13
2018-05-07T23:46:34.056Z,98919.17
2018-05-07T23:49:07.796Z,98916.55
2018-05-07T23:51:41.502Z,98908.75
2018-05-07T23:54:15.036Z,98909.75
2018-05-07T23:56:48.716Z,98908.84
2018-05-07T23:59:22.272Z,98906.20
